Time;durP1;ratioP1;P1;durP2;ratioP2;P2;SDS_P1;SDS_P2;PMS_P1;PMS_P2;Temp;Humidity;BMP_temperature;BMP_pressure;BME280_temperature;BME280_humidity;BME280_pressure;Samples;Min_cycle;Max_cycle;Signal;HPM_P1;HPM_P2
2024/04/08 00:00:40;;;;;;;2.70;1.27;;;;;;;16.22;90.01;100482.13;5031493;28;20225;-78
2024/04/08 00:03:06;;;;;;;3.37;1.63;;;;;;;16.17;90.19;100493.25;5033304;28;20209;-79
2024/04/08 00:05:36;;;;;;;4.50;1.77;;;;;;;16.13;91.16;100497.19;5027766;28;20216;-79
2024/04/08 00:08:03;;;;;;;3.23;1.63;;;;;;;16.08;91.31;100485.19;5023795;28;20212;-79
2024/04/08 00:10:38;;;;;;;3.13;1.57;;;;;;;16.05;92.21;100477.41;5027572;28;20603;-79
2024/04/08 00:13:07;;;;;;;3.77;1.50;;;;;;;16.02;93.15;100472.28;5024917;28;20201;-79
2024/04/08 00:15:34;;;;;;;2.93;1.57;;;;;;;16.00;93.38;100466.19;5025043;28;20209;-77
2024/04/08 00:18:00;;;;;;;5.40;1.73;;;;;;;15.95;94.13;100464.75;5033582;28;20246;-78
2024/04/08 00:20:26;;;;;;;4.77;1.73;;;;;;;15.91;94.53;100471.41;5039107;28;20232;-78
2024/04/08 00:22:55;;;;;;;5.33;1.83;;;;;;;15.87;95.19;100480.72;5021426;28;20620;-79
2024/04/08 00:25:22;;;;;;;6.63;2.60;;;;;;;15.82;95.09;100461.47;5029424;28;20712;-79
2024/04/08 00:27:50;;;;;;;2.87;1.27;;;;;;;15.81;96.15;100481.25;5031460;28;20229;-78
2024/04/08 00:30:17;;;;;;;4.23;1.90;;;;;;;15.79;96.57;100485.91;5029227;28;20226;-78
2024/04/08 00:32:42;;;;;;;4.43;1.70;;;;;;;15.78;96.75;100481.50;5029700;28;20307;-78
2024/04/08 00:35:10;;;;;;;2.73;1.40;;;;;;;15.75;96.97;100476.44;5038492;28;20274;-78
2024/04/08 00:37:37;;;;;;;4.97;1.80;;;;;;;15.73;97.69;100482.94;5026155;28;20897;-79
2024/04/08 00:40:04;;;;;;;6.30;1.80;;;;;;;15.70;97.90;100486.72;5032060;28;20203;-78
2024/04/08 00:42:30;;;;;;;6.10;1.77;;;;;;;15.67;98.31;100484.31;5032371;28;20199;-79
2024/04/08 00:44:58;;;;;;;3.13;1.80;;;;;;;15.64;99.03;100479.19;5025829;28;20652;-80
2024/04/08 00:47:23;;;;;;;6.77;1.70;;;;;;;15.59;99.17;100444.69;5029358;28;20289;-78
2024/04/08 00:49:50;;;;;;;3.87;1.57;;;;;;;15.56;99.23;100450.34;5033991;28;20287;-79
2024/04/08 00:52:18;;;;;;;5.47;2.30;;;;;;;15.55;99.48;100461.19;5021036;28;20316;-79
2024/04/08 00:54:45;;;;;;;5.57;1.70;;;;;;;15.55;100.00;100453.13;5032091;28;20673;-78
2024/04/08 00:57:16;;;;;;;6.77;2.40;;;;;;;15.53;100.00;100429.09;5021862;28;20206;-77
2024/04/08 00:59:43;;;;;;;4.60;1.83;;;;;;;15.48;100.00;100420.59;5029242;28;20223;-79
2024/04/08 01:05:37;;;;;;;1.97;1.60;;;;;;;15.45;100.00;100417.31;4993496;28;20253;-79
2024/04/08 01:08:03;;;;;;;6.90;2.00;;;;;;;15.42;100.00;100410.38;5032736;28;20210;-78
2024/04/08 01:10:30;;;;;;;5.40;1.93;;;;;;;15.41;100.00;100406.00;5022918;28;20222;-78
2024/04/08 01:12:56;;;;;;;4.60;1.87;;;;;;;15.39;100.00;100410.69;5036088;28;20208;-78
2024/04/08 01:15:24;;;;;;;2.73;1.50;;;;;;;15.37;100.00;100419.84;5030926;28;20213;-79
2024/04/08 01:17:50;;;;;;;5.10;2.43;;;;;;;15.35;100.00;100414.59;5031622;28;20681;-78
2024/04/08 01:20:16;;;;;;;2.10;1.60;;;;;;;15.34;100.00;100414.75;5031328;28;20298;-79
2024/04/08 01:22:48;;;;;;;6.93;2.03;;;;;;;15.30;100.00;100414.16;5029576;28;20208;-79
2024/04/08 01:25:16;;;;;;;2.97;1.80;;;;;;;15.28;100.00;100414.28;5030391;28;20255;-79
2024/04/08 01:27:45;;;;;;;2.67;1.90;;;;;;;15.28;100.00;100414.28;5026392;28;20383;-79
2024/04/08 01:30:22;;;;;;;3.97;2.47;;;;;;;15.29;100.00;100415.13;5028340;28;20234;-79
2024/04/08 01:32:48;;;;;;;2.53;1.73;;;;;;;15.29;100.00;100431.22;5018504;28;20264;-79
2024/04/08 01:35:15;;;;;;;3.23;2.00;;;;;;;15.27;100.00;100434.03;5028378;28;20293;-79
2024/04/08 01:37:41;;;;;;;4.27;1.83;;;;;;;15.28;100.00;100448.31;5021548;28;20221;-78
2024/04/08 01:40:08;;;;;;;2.70;1.67;;;;;;;15.27;100.00;100460.88;5037258;28;20473;-79
2024/04/08 01:42:37;;;;;;;3.53;2.30;;;;;;;15.27;100.00;100458.19;5026985;28;20643;-79
2024/04/08 01:45:08;;;;;;;5.13;2.63;;;;;;;15.28;100.00;100456.34;5018677;28;20214;-79
2024/04/08 01:47:34;;;;;;;5.83;2.10;;;;;;;15.27;100.00;100442.09;5035421;28;20206;-79
2024/04/08 01:50:03;;;;;;;4.07;2.10;;;;;;;15.25;100.00;100430.63;5027289;28;20210;-78
2024/04/08 01:52:29;;;;;;;5.57;1.87;;;;;;;15.24;100.00;100426.25;5035582;28;20218;-78
2024/04/08 01:54:57;;;;;;;5.23;1.97;;;;;;;15.22;100.00;100416.66;5036121;28;20737;-79
2024/04/08 01:57:22;;;;;;;3.57;2.13;;;;;;;15.19;100.00;100411.56;5035143;28;20215;-79
2024/04/08 01:59:50;;;;;;;3.23;2.27;;;;;;;15.15;100.00;100419.00;5028730;28;20579;-78
2024/04/08 02:02:19;;;;;;;3.87;2.00;;;;;;;15.13;100.00;100426.34;5031073;28;20292;-78
2024/04/08 02:04:46;;;;;;;2.87;2.20;;;;;;;15.11;100.00;100444.41;5025386;28;20212;-78
2024/04/08 02:07:11;;;;;;;4.20;2.43;;;;;;;15.09;100.00;100457.06;5035532;28;20240;-78
2024/04/08 02:09:40;;;;;;;3.77;2.13;;;;;;;15.08;100.00;100474.16;5033666;28;20234;-79
2024/04/08 02:12:06;;;;;;;4.37;2.63;;;;;;;15.07;100.00;100490.38;5030416;28;20313;-78
2024/04/08 02:14:33;;;;;;;5.77;2.13;;;;;;;15.05;100.00;100495.88;5022186;28;20252;-79
2024/04/08 02:17:01;;;;;;;3.93;2.10;;;;;;;15.05;100.00;100498.53;5029199;28;20210;-80
2024/04/08 02:19:28;;;;;;;6.63;2.80;;;;;;;15.05;100.00;100501.22;5023652;28;20209;-79
2024/04/08 02:21:56;;;;;;;4.53;2.00;;;;;;;15.05;100.00;100509.28;5041745;28;20304;-79
2024/04/08 02:24:23;;;;;;;6.40;3.10;;;;;;;15.05;100.00;100529.91;5029370;28;20218;-79
2024/04/08 02:26:53;;;;;;;7.57;2.43;;;;;;;15.03;100.00;100546.13;5025126;28;20207;-79
2024/04/08 02:29:21;;;;;;;4.03;2.50;;;;;;;15.02;100.00;100549.78;5027782;28;20206;-81
2024/04/08 02:31:53;;;;;;;3.27;2.10;;;;;;;15.03;100.00;100545.28;5028764;28;20227;-80
2024/04/08 02:34:21;;;;;;;6.47;3.47;;;;;;;15.01;100.00;100553.44;5027492;28;20221;-81
2024/04/08 02:36:48;;;;;;;5.23;2.50;;;;;;;15.00;100.00;100559.78;5028995;28;20212;-80
2024/04/08 02:39:16;;;;;;;4.93;2.43;;;;;;;14.98;100.00;100575.16;5029600;28;20203;-80
2024/04/08 02:41:42;;;;;;;5.60;2.57;;;;;;;14.97;100.00;100576.13;5027702;28;20266;-80
2024/04/08 02:44:08;;;;;;;6.93;2.17;;;;;;;14.97;100.00;100572.59;5027422;28;20238;-80
2024/04/08 02:46:34;;;;;;;5.03;2.40;;;;;;;14.97;100.00;100565.41;5028419;28;20631;-80
2024/04/08 02:49:03;;;;;;;5.13;2.50;;;;;;;14.98;100.00;100559.06;5026105;28;20294;-80
2024/04/08 02:51:30;;;;;;;4.93;2.87;;;;;;;14.96;100.00;100558.34;5029098;28;20323;-80
2024/04/08 02:53:59;;;;;;;4.03;2.20;;;;;;;14.92;100.00;100560.41;5020509;28;20225;-80
2024/04/08 02:56:25;;;;;;;3.37;2.23;;;;;;;14.89;100.00;100533.00;5031745;28;20230;-80
2024/04/08 02:58:53;;;;;;;5.90;2.57;;;;;;;14.84;100.00;100525.34;5039649;28;20272;-79
2024/04/08 03:01:19;;;;;;;6.77;3.17;;;;;;;14.80;100.00;100496.25;5029129;28;20314;-79
2024/04/08 03:03:46;;;;;;;5.27;2.50;;;;;;;14.77;100.00;100483.09;5035077;28;20297;-79
2024/04/08 03:06:18;;;;;;;3.83;2.30;;;;;;;14.69;100.00;100456.09;5035386;28;20208;-79
2024/04/08 03:08:51;;;;;;;5.43;2.87;;;;;;;14.64;100.00;100442.19;5021455;28;20209;-79
2024/04/08 03:11:19;;;;;;;4.83;2.67;;;;;;;14.55;100.00;100454.53;5029962;28;20233;-79
2024/04/08 03:13:48;;;;;;;6.30;4.17;;;;;;;14.50;100.00;100468.31;5032595;28;20206;-79
2024/04/08 03:16:15;;;;;;;4.30;3.40;;;;;;;14.47;100.00;100444.47;5034019;28;20252;-79
2024/04/08 03:18:42;;;;;;;4.20;2.70;;;;;;;14.45;100.00;100441.06;5026973;28;20243;-79
2024/04/08 03:21:07;;;;;;;5.27;2.87;;;;;;;14.44;100.00;100434.00;5030073;28;20299;-78
2024/04/08 03:23:37;;;;;;;5.57;2.70;;;;;;;14.43;100.00;100423.41;5034298;28;20210;-79
2024/04/08 03:26:06;;;;;;;4.03;2.43;;;;;;;14.37;100.00;100405.97;5034657;28;20300;-79
2024/04/08 03:28:34;;;;;;;3.37;2.40;;;;;;;14.35;100.00;100397.19;5026816;28;20293;-79
2024/04/08 03:31:05;;;;;;;4.63;2.27;;;;;;;14.31;100.00;100403.81;5025612;28;20317;-80
2024/04/08 03:33:35;;;;;;;6.83;2.13;;;;;;;14.29;100.00;100413.78;5025640;28;20217;-80
2024/04/08 03:36:07;;;;;;;5.67;2.30;;;;;;;14.29;100.00;100424.50;5029504;28;20213;-79
2024/04/08 03:38:34;;;;;;;4.77;1.93;;;;;;;14.26;100.00;100414.03;5038182;28;20198;-80
2024/04/08 03:41:00;;;;;;;6.23;2.30;;;;;;;14.24;100.00;100406.13;5033851;28;20261;-78
2024/04/08 03:43:28;;;;;;;4.43;2.10;;;;;;;14.24;100.00;100410.63;5031081;28;20206;-79
2024/04/08 03:45:55;;;;;;;5.10;2.30;;;;;;;14.22;100.00;100415.25;5032739;28;20248;-79
2024/04/08 03:48:22;;;;;;;5.40;2.43;;;;;;;14.19;100.00;100410.16;5023635;28;20769;-79
2024/04/08 03:50:48;;;;;;;3.90;2.30;;;;;;;14.16;100.00;100413.06;5021885;28;20313;-79
2024/04/08 03:53:14;;;;;;;5.27;2.63;;;;;;;14.13;100.00;100408.84;5024861;28;20742;-78
2024/04/08 03:55:40;;;;;;;4.60;1.90;;;;;;;14.10;100.00;100409.09;5036382;28;20283;-79
2024/04/08 03:58:07;;;;;;;3.83;2.50;;;;;;;14.11;100.00;100409.94;5030997;28;20593;-79
2024/04/08 04:00:34;;;;;;;3.50;2.03;;;;;;;14.08;100.00;100413.72;5031865;28;20755;-79
2024/04/08 04:03:01;;;;;;;3.80;2.23;;;;;;;14.07;100.00;100411.16;5030541;28;20210;-79
2024/04/08 04:05:26;;;;;;;2.93;1.93;;;;;;;14.08;100.00;100407.50;5021449;28;20203;-79
2024/04/08 04:07:56;;;;;;;5.77;2.47;;;;;;;14.07;100.00;100420.06;5026207;28;20221;-79
2024/04/08 04:10:21;;;;;;;5.97;2.60;;;;;;;14.08;100.00;100423.59;5031485;28;20213;-79
2024/04/08 04:12:48;;;;;;;5.37;2.30;;;;;;;14.07;100.00;100411.16;5032909;28;20222;-79
2024/04/08 04:15:14;;;;;;;5.20;2.40;;;;;;;14.07;100.00;100403.13;5038450;28;20581;-80
2024/04/08 04:17:43;;;;;;;4.20;2.50;;;;;;;14.06;100.00;100396.06;5026123;28;20217;-80
2024/04/08 04:20:10;;;;;;;6.53;3.00;;;;;;;14.04;100.00;100390.00;5029929;28;20240;-80
2024/04/08 04:22:37;;;;;;;6.13;2.33;;;;;;;14.04;100.00;100384.63;5028375;28;20202;-80
2024/04/08 04:25:03;;;;;;;3.83;2.20;;;;;;;14.05;100.00;100391.69;5028973;28;20234;-80
2024/04/08 04:27:30;;;;;;;3.50;2.10;;;;;;;14.05;100.00;100399.72;5028702;28;20206;-79
2024/04/08 04:29:56;;;;;;;4.37;1.73;;;;;;;14.06;100.00;100404.97;5029458;28;20583;-80
2024/04/08 04:32:23;;;;;;;4.60;2.60;;;;;;;14.05;100.00;100394.38;5026260;28;20242;-79
2024/04/08 04:34:50;;;;;;;3.33;2.53;;;;;;;14.05;100.00;100403.25;5028332;28;20249;-80
2024/04/08 04:37:17;;;;;;;3.10;2.17;;;;;;;14.05;100.00;100421.16;5034914;28;20230;-80
2024/04/08 04:39:43;;;;;;;5.07;2.83;;;;;;;14.06;100.00;100433.56;5032665;28;20297;-79
2024/04/08 04:42:09;;;;;;;3.80;2.00;;;;;;;14.07;100.00;100440.63;5028626;28;20299;-80
2024/04/08 04:44:35;;;;;;;3.67;2.43;;;;;;;14.07;100.00;100443.31;5039763;28;20262;-79
2024/04/08 04:47:02;;;;;;;5.80;2.63;;;;;;;14.08;100.00;100437.81;5033427;28;20245;-79
2024/04/08 04:49:27;;;;;;;4.07;2.67;;;;;;;14.07;100.00;100445.97;5035154;28;20207;-79
2024/04/08 04:51:55;;;;;;;4.17;2.30;;;;;;;14.07;100.00;100436.13;5029938;28;20232;-79
2024/04/08 04:54:21;;;;;;;4.57;2.37;;;;;;;14.06;100.00;100425.53;5030638;28;20233;-79
2024/04/08 04:56:48;;;;;;;5.13;2.33;;;;;;;14.05;100.00;100416.66;5037555;28;20237;-80
2024/04/08 04:59:13;;;;;;;5.33;2.70;;;;;;;14.05;100.00;100410.44;5037715;28;20237;-80
2024/04/08 05:01:40;;;;;;;4.30;2.57;;;;;;;14.04;100.00;100411.41;5032773;28;20256;-80
2024/04/08 05:04:08;;;;;;;4.47;2.67;;;;;;;14.00;100.00;100386.72;5034538;28;20244;-80
2024/04/08 05:06:34;;;;;;;5.33;2.53;;;;;;;13.98;100.00;100369.91;5030834;28;20665;-81
2024/04/08 05:09:02;;;;;;;5.23;2.63;;;;;;;13.97;100.00;100370.91;5032561;28;20569;-81
2024/04/08 05:11:29;;;;;;;4.60;2.93;;;;;;;13.95;100.00;100362.16;5030079;28;20242;-81
2024/04/08 05:13:54;;;;;;;6.33;2.60;;;;;;;13.95;100.00;100361.31;5032051;28;20256;-81
2024/04/08 05:16:21;;;;;;;4.70;2.10;;;;;;;13.94;100.00;100359.59;5021785;28;20242;-81
2024/04/08 05:18:47;;;;;;;4.57;2.43;;;;;;;13.94;100.00;100359.59;5021127;28;20238;-81
2024/04/08 05:21:14;;;;;;;3.80;2.33;;;;;;;13.94;100.00;100346.22;5028925;28;20687;-80
2024/04/08 05:23:39;;;;;;;3.80;2.70;;;;;;;13.93;100.00;100349.88;5022239;28;20268;-81
2024/04/08 05:26:07;;;;;;;5.43;2.50;;;;;;;13.93;100.00;100357.91;5028641;28;20298;-80
2024/04/08 05:28:33;;;;;;;5.10;2.50;;;;;;;13.89;100.00;100342.09;5027863;28;20301;-81
2024/04/08 05:31:00;;;;;;;3.90;2.77;;;;;;;13.86;100.00;100353.03;5032225;28;20312;-80
2024/04/08 05:33:25;;;;;;;5.67;2.67;;;;;;;13.83;100.00;100353.28;5025721;28;20765;-81
2024/04/08 05:35:52;;;;;;;7.30;2.87;;;;;;;13.80;100.00;100342.81;5017077;28;20294;-80
2024/04/08 05:38:18;;;;;;;4.10;2.37;;;;;;;13.76;100.00;100325.34;5031499;28;20655;-79
2024/04/08 05:40:44;;;;;;;3.87;2.20;;;;;;;13.76;100.00;100319.13;5033086;28;20260;-78
2024/04/08 05:43:14;;;;;;;4.90;2.30;;;;;;;13.71;100.00;100314.16;5032951;28;20210;-79
2024/04/08 05:45:41;;;;;;;4.53;2.50;;;;;;;13.69;100.00;100297.38;5033057;28;20210;-79
2024/04/08 05:48:09;;;;;;;5.57;2.10;;;;;;;13.69;100.00;100300.03;5033482;28;20238;-80
2024/04/08 05:50:36;;;;;;;5.43;2.33;;;;;;;13.68;100.00;100281.44;5033000;28;20226;-80
2024/04/08 05:53:02;;;;;;;3.97;2.10;;;;;;;13.65;100.00;100276.31;5033570;28;20226;-80
2024/04/08 05:55:30;;;;;;;3.33;2.20;;;;;;;13.65;100.00;100265.63;5034199;28;20273;-80
2024/04/08 05:57:56;;;;;;;4.03;2.33;;;;;;;13.64;100.00;100266.59;5032134;28;20213;-80
2024/04/08 06:00:24;;;;;;;6.83;2.30;;;;;;;13.61;100.00;100266.88;5032645;28;20236;-80
2024/04/08 06:02:52;;;;;;;3.97;2.43;;;;;;;13.60;100.00;100270.53;5032399;28;20293;-80
2024/04/08 06:05:20;;;;;;;2.90;2.13;;;;;;;13.58;100.00;100265.28;5031697;28;20222;-79
2024/04/08 06:07:48;;;;;;;3.50;2.27;;;;;;;13.59;100.00;100269.66;5032596;28;20209;-79
2024/04/08 06:10:15;;;;;;;2.50;2.13;;;;;;;13.58;100.00;100269.78;5020510;28;20207;-78
2024/04/08 06:12:41;;;;;;;4.23;2.80;;;;;;;13.56;100.00;100283.28;5025454;28;20219;-78
2024/04/08 06:15:08;;;;;;;8.33;2.93;;;;;;;13.58;100.00;100270.63;5029861;28;20233;-78
2024/04/08 06:17:35;;;;;;;5.93;3.30;;;;;;;13.61;100.00;100288.28;5038245;28;20256;-78
2024/04/08 06:20:02;;;;;;;5.67;3.07;;;;;;;13.62;100.00;100298.81;5027279;28;20207;-78
2024/04/08 06:22:28;;;;;;;4.23;2.20;;;;;;;13.69;100.00;100301.88;5022824;28;20312;-78
2024/04/08 06:24:55;;;;;;;6.73;3.00;;;;;;;13.72;100.00;100302.47;5022916;28;20809;-79
2024/04/08 06:27:20;;;;;;;7.43;2.70;;;;;;;13.72;100.00;100294.44;5031198;28;20297;-79
2024/04/08 06:29:47;;;;;;;5.20;2.30;;;;;;;13.72;100.00;100299.78;5032073;28;20923;-79
2024/04/08 06:32:13;;;;;;;3.53;2.17;;;;;;;13.73;100.00;100281.91;5029928;28;20322;-79
2024/04/08 06:34:41;;;;;;;3.63;2.30;;;;;;;13.74;100.00;100272.91;5035079;28;20293;-79
2024/04/08 06:37:07;;;;;;;6.50;2.80;;;;;;;13.74;100.00;100287.13;5035228;28;20244;-79
2024/04/08 06:39:33;;;;;;;7.27;2.50;;;;;;;13.76;100.00;100297.72;5028396;28;20238;-79
2024/04/08 06:41:59;;;;;;;5.17;2.73;;;;;;;13.76;100.00;100295.91;5034676;28;20317;-79
2024/04/08 06:44:26;;;;;;;4.20;2.33;;;;;;;13.76;100.00;100303.06;5027604;28;20238;-80
2024/04/08 06:46:51;;;;;;;4.40;2.17;;;;;;;13.80;100.00;100291.13;5032033;28;20215;-79
2024/04/08 06:49:18;;;;;;;3.70;2.07;;;;;;;13.82;100.00;100299.88;5030265;28;20604;-78
2024/04/08 06:51:45;;;;;;;4.00;2.20;;;;;;;13.82;100.00;100302.53;5026306;28;20268;-79
2024/04/08 06:54:12;;;;;;;6.23;2.43;;;;;;;13.82;100.00;100306.06;5028233;28;20257;-79
2024/04/08 06:58:19;;;;;;;4.17;2.40;;;;;;;13.84;100.00;100312.16;5491178;25;20670;-77
2024/04/08 07:00:45;;;;;;;4.17;2.63;;;;;;;13.87;100.00;100327.97;5462883;26;20333;-78
2024/04/08 07:03:14;;;;;;;3.47;2.20;;;;;;;13.90;100.00;100325.03;5477996;26;20244;-79
2024/04/08 07:05:39;;;;;;;3.53;2.13;;;;;;;13.93;100.00;100329.31;5467223;26;20225;-75
2024/04/08 07:08:08;;;;;;;3.97;2.40;;;;;;;13.96;100.00;100325.53;5457908;26;20559;-75
2024/04/08 07:10:35;;;;;;;5.30;2.53;;;;;;;13.99;100.00;100346.66;5472876;26;20241;-76
2024/04/08 07:13:03;;;;;;;3.83;2.43;;;;;;;14.01;100.00;100334.00;5458820;26;20337;-76
2024/04/08 07:15:32;;;;;;;3.53;2.17;;;;;;;14.03;100.00;100332.91;5475609;25;20233;-75
2024/04/08 07:18:01;;;;;;;4.53;2.87;;;;;;;14.05;100.00;100330.09;5468461;26;20241;-76
2024/04/08 07:20:27;;;;;;;4.70;3.30;;;;;;;14.09;100.00;100324.38;5461910;26;20237;-76
2024/04/08 07:22:55;;;;;;;6.70;4.67;;;;;;;14.10;100.00;100323.41;5466754;26;20303;-74
2024/04/08 07:25:21;;;;;;;7.43;5.03;;;;;;;14.14;100.00;100313.28;5465990;26;20722;-75
2024/04/08 07:27:50;;;;;;;7.90;5.67;;;;;;;14.17;100.00;100319.22;5463330;25;20334;-76
2024/04/08 07:30:15;;;;;;;5.93;4.80;;;;;;;14.28;100.00;100321.00;5473584;26;20692;-78
2024/04/08 07:32:47;;;;;;;7.97;5.07;;;;;;;14.32;100.00;100327.81;5475333;26;20241;-78
2024/04/08 07:35:16;;;;;;;11.87;6.60;;;;;;;14.34;100.00;100319.63;5457454;26;20225;-75
2024/04/08 07:37:44;;;;;;;8.37;6.23;;;;;;;14.38;100.00;100313.03;5463573;26;20272;-75
2024/04/08 07:40:10;;;;;;;12.30;6.83;;;;;;;14.39;100.00;100306.69;5457850;26;20288;-75
2024/04/08 07:42:39;;;;;;;11.33;7.37;;;;;;;14.44;100.00;100304.53;5457701;26;20732;-76
2024/04/08 07:45:05;;;;;;;10.07;6.93;;;;;;;14.49;100.00;100297.81;5464480;26;20232;-75
2024/04/08 07:47:33;;;;;;;11.37;7.23;;;;;;;14.54;100.00;100305.44;5462266;26;20229;-76
2024/04/08 07:50:02;;;;;;;14.27;9.10;;;;;;;14.58;100.00;100306.88;5467713;25;20228;-77
2024/04/08 07:52:37;;;;;;;14.93;9.90;;;;;;;14.66;100.00;100303.56;5478975;26;20663;-79
2024/04/08 07:55:03;;;;;;;12.43;9.90;;;;;;;14.73;100.00;100307.38;5450769;26;20339;-80
2024/04/08 07:57:31;;;;;;;14.50;10.50;;;;;;;14.78;100.00;100302.50;5472464;26;20859;-80
2024/04/08 07:59:57;;;;;;;14.67;11.27;;;;;;;14.83;100.00;100294.91;5478089;26;20234;-80
2024/04/08 08:02:28;;;;;;;14.67;11.07;;;;;;;14.89;100.00;100295.19;5487875;26;20297;-81
2024/04/08 08:04:53;;;;;;;14.27;10.83;;;;;;;14.94;100.00;100292.97;5464723;26;20229;-81
2024/04/08 08:07:24;;;;;;;12.07;10.27;;;;;;;15.02;100.00;100283.44;5474564;26;20230;-80
2024/04/08 08:09:53;;;;;;;14.83;10.60;;;;;;;15.13;100.00;100294.06;5443026;26;20287;-80
2024/04/08 08:12:21;;;;;;;12.07;10.77;;;;;;;15.22;100.00;100290.56;5453749;26;20269;-79
2024/04/08 08:14:49;;;;;;;12.43;9.93;;;;;;;15.26;100.00;100295.50;5446403;26;20628;-80
2024/04/08 08:17:18;;;;;;;11.33;10.13;;;;;;;15.34;100.00;100297.53;5442930;26;20232;-79
2024/04/08 08:19:50;;;;;;;15.83;11.27;;;;;;;15.38;100.00;100290.91;5440594;26;20280;-78
2024/04/08 08:22:19;;;;;;;15.07;10.50;;;;;;;15.44;100.00;100295.72;5458635;26;20886;-78
2024/04/08 08:24:50;;;;;;;13.80;10.97;;;;;;;15.52;100.00;100301.25;5441710;26;21243;-76
2024/04/08 08:27:18;;;;;;;12.17;10.80;;;;;;;15.62;100.00;100303.97;5443288;26;20270;-77
2024/04/08 08:29:52;;;;;;;13.60;10.57;;;;;;;15.71;100.00;100303.16;5453241;26;20243;-77
2024/04/08 08:32:20;;;;;;;14.30;10.93;;;;;;;15.76;100.00;100290.19;5467498;26;20741;-78
2024/04/08 08:34:48;;;;;;;12.97;10.97;;;;;;;15.86;100.00;100300.94;5453956;26;20284;-77
2024/04/08 08:37:14;;;;;;;12.93;10.27;;;;;;;15.92;100.00;100289.63;5455999;26;20234;-77
2024/04/08 08:39:42;;;;;;;12.17;10.87;;;;;;;15.97;100.00;100288.22;5450616;26;20723;-78
2024/04/08 08:42:18;;;;;;;12.03;10.83;;;;;;;16.03;100.00;100278.75;5441209;26;20236;-78
2024/04/08 08:44:52;;;;;;;14.53;10.30;;;;;;;16.12;100.00;100277.88;5465593;26;20229;-78
2024/04/08 08:47:20;;;;;;;13.90;11.83;;;;;;;16.18;100.00;100271.09;5451012;26;20275;-78
2024/04/08 08:49:49;;;;;;;14.37;10.93;;;;;;;16.25;100.00;100256.13;5448618;26;20275;-78
2024/04/08 08:52:15;;;;;;;11.23;10.00;;;;;;;16.32;100.00;100254.53;5460140;26;20599;-78
2024/04/08 08:54:43;;;;;;;12.57;9.33;;;;;;;16.44;100.00;100257.94;5460857;26;20234;-79
2024/04/08 08:57:11;;;;;;;9.90;8.13;;;;;;;16.52;100.00;100253.53;5446341;26;20339;-79
2024/04/08 08:59:42;;;;;;;10.27;8.37;;;;;;;16.61;100.00;100258.03;5446114;26;20603;-79
2024/04/08 09:02:14;;;;;;;10.73;8.27;;;;;;;16.74;100.00;100254.22;5457594;26;20717;-79
2024/04/08 09:04:40;;;;;;;12.47;9.20;;;;;;;16.85;100.00;100254.03;5446303;26;20267;-76
2024/04/08 09:07:09;;;;;;;10.30;8.00;;;;;;;16.97;100.00;100258.25;5453589;26;20278;-77
2024/04/08 09:09:35;;;;;;;9.30;7.73;;;;;;;17.09;99.71;100253.50;5431223;26;20235;-74
2024/04/08 09:12:04;;;;;;;8.67;7.37;;;;;;;17.19;98.59;100249.81;5442811;26;20276;-75
2024/04/08 09:14:35;;;;;;;9.10;7.27;;;;;;;17.30;97.49;100263.03;5455588;26;20269;-75
2024/04/08 09:17:05;;;;;;;8.10;7.30;;;;;;;17.42;97.65;100260.13;5441059;26;20273;-75
2024/04/08 09:19:34;;;;;;;9.07;7.17;;;;;;;17.57;96.67;100269.41;5432669;26;20739;-74
2024/04/08 09:21:59;;;;;;;9.77;8.10;;;;;;;17.69;94.88;100268.25;5443102;26;20231;-74
2024/04/08 09:24:28;;;;;;;11.27;7.67;;;;;;;17.80;93.97;100265.31;5449797;26;20268;-74
2024/04/08 09:26:54;;;;;;;7.87;6.50;;;;;;;17.90;93.38;100260.72;5426009;26;20233;-74
2024/04/08 09:29:22;;;;;;;7.73;6.93;;;;;;;18.01;92.81;100252.41;5438998;26;20795;-74
2024/04/08 09:31:54;;;;;;;8.27;6.07;;;;;;;18.14;93.82;100254.69;5439089;26;20751;-75
2024/04/08 09:34:19;;;;;;;7.47;6.70;;;;;;;18.27;93.07;100257.00;5446068;26;20236;-74
2024/04/08 09:36:48;;;;;;;9.60;7.07;;;;;;;18.35;90.36;100240.88;5444617;26;20286;-75
2024/04/08 09:39:16;;;;;;;8.73;6.73;;;;;;;18.41;89.94;100237.56;5435777;26;20234;-76
2024/04/08 09:41:45;;;;;;;8.23;6.77;;;;;;;18.50;90.11;100231.22;5430003;26;20275;-75
2024/04/08 09:44:13;;;;;;;8.67;6.50;;;;;;;18.60;88.81;100232.00;5444893;26;20248;-75
2024/04/08 09:46:42;;;;;;;9.67;7.30;;;;;;;18.67;88.31;100222.25;5427650;26;20233;-75
2024/04/08 09:49:12;;;;;;;9.77;6.27;;;;;;;18.76;87.08;100219.63;5442479;26;20246;-75
2024/04/08 09:51:42;;;;;;;8.00;6.67;;;;;;;18.83;87.52;100210.69;5426377;26;20242;-75
2024/04/08 09:54:08;;;;;;;8.07;6.50;;;;;;;18.99;87.36;100201.84;5445640;26;20243;-75
2024/04/08 09:56:40;;;;;;;7.73;6.10;;;;;;;19.05;86.46;100206.59;5446091;26;20257;-75
2024/04/08 09:59:13;;;;;;;16.33;11.40;;;;;;;19.13;87.17;100205.78;5444065;26;20286;-74
2024/04/08 10:01:43;;;;;;;8.17;6.03;;;;;;;19.22;85.93;100202.94;5444318;26;20238;-74
2024/04/08 10:04:13;;;;;;;8.80;6.93;;;;;;;19.32;86.22;100198.28;5428331;26;20270;-75
2024/04/08 10:06:42;;;;;;;8.87;5.87;;;;;;;19.42;85.68;100200.81;5459872;26;20725;-75
2024/04/08 10:09:09;;;;;;;6.30;5.70;;;;;;;19.51;84.18;100196.34;5425703;26;20235;-74
2024/04/08 10:11:38;;;;;;;7.47;5.20;;;;;;;19.57;82.60;100188.38;5436033;26;20250;-74
2024/04/08 10:14:14;;;;;;;7.93;5.40;;;;;;;19.61;82.36;100183.50;5427678;26;20236;-75
2024/04/08 10:16:43;;;;;;;9.20;5.70;;;;;;;19.66;83.69;100183.84;5431682;26;20334;-76
2024/04/08 10:19:12;;;;;;;9.03;5.00;;;;;;;19.78;83.90;100185.22;5437305;26;20238;-75
2024/04/08 10:21:40;;;;;;;5.17;4.63;;;;;;;19.91;82.99;100179.28;5437229;26;20614;-76
2024/04/08 10:24:06;;;;;;;5.47;4.97;;;;;;;19.98;81.15;100169.50;5436785;26;20254;-74
2024/04/08 10:26:37;;;;;;;8.10;5.40;;;;;;;20.07;81.38;100163.06;5439366;26;20277;-75
2024/04/08 10:29:05;;;;;;;7.30;5.20;;;;;;;20.17;81.70;100162.91;5425942;26;20264;-75
2024/04/08 10:31:33;;;;;;;7.78;5.38;;;;;;;20.30;81.91;100171.34;5435306;26;20639;-75
2024/04/08 10:33:59;;;;;;;6.70;5.83;;;;;;;20.38;79.56;100168.66;5453139;26;20227;-74
2024/04/08 10:36:32;;;;;;;9.65;5.97;;;;;;;20.42;78.49;100167.31;5440105;26;20337;-75
2024/04/08 10:38:58;;;;;;;5.67;5.00;;;;;;;20.48;78.78;100163.91;5436397;26;20237;-74
2024/04/08 10:41:26;;;;;;;6.10;5.43;;;;;;;20.58;79.03;100156.47;5448473;26;20799;-75
2024/04/08 10:43:52;;;;;;;6.60;5.18;;;;;;;20.68;78.36;100162.50;5447130;26;20234;-75
2024/04/08 10:46:21;;;;;;;6.47;5.50;;;;;;;20.76;78.51;100156.22;5445012;26;20284;-74
2024/04/08 10:48:47;;;;;;;7.90;5.28;;;;;;;20.83;76.12;100167.19;5456648;26;20612;-75
2024/04/08 10:51:16;;;;;;;5.47;4.93;;;;;;;20.86;76.09;100170.38;5444828;26;20288;-75
2024/04/08 10:53:44;;;;;;;7.15;4.97;;;;;;;20.95;76.21;100166.66;5440743;26;20221;-74
2024/04/08 10:56:13;;;;;;;9.50;7.20;;;;;;;21.06;77.36;100165.41;5434900;26;20232;-74
2024/04/08 10:58:38;;;;;;;8.40;6.82;;;;;;;21.15;77.71;100159.75;5451856;26;20275;-75
2024/04/08 11:01:08;;;;;;;9.95;6.70;;;;;;;21.22;75.71;100157.22;5442168;26;20233;-74
2024/04/08 11:03:35;;;;;;;11.13;7.45;;;;;;;21.23;76.57;100150.78;5433161;26;20279;-75
2024/04/08 11:06:03;;;;;;;8.02;6.13;;;;;;;21.35;76.86;100151.22;5459122;26;20467;-75
2024/04/08 11:08:29;;;;;;;8.52;6.18;;;;;;;21.42;77.07;100144.91;5452121;26;20232;-74
2024/04/08 11:11:03;;;;;;;9.75;6.25;;;;;;;21.51;75.51;100140.28;5441884;26;20292;-75
2024/04/08 11:13:29;;;;;;;9.40;6.80;;;;;;;21.58;74.51;100145.81;5429114;26;20771;-75
2024/04/08 11:15:58;;;;;;;10.25;6.32;;;;;;;21.60;74.03;100147.34;5445238;26;20236;-75
2024/04/08 11:18:24;;;;;;;7.25;5.70;;;;;;;21.65;73.70;100150.34;5444962;26;20538;-77
2024/04/08 11:20:52;;;;;;;7.20;6.15;;;;;;;21.72;74.32;100145.88;5442922;26;20246;-74
2024/04/08 11:23:19;;;;;;;8.57;5.00;;;;;;;21.85;75.10;100144.44;5437810;26;20237;-75